Time;durP1;ratioP1;P1;durP2;ratioP2;P2;SDS_P1;SDS_P2;PMS_P1;PMS_P2;Temp;Humidity;BMP_temperature;BMP_pressure;BME280_temperature;BME280_humidity;BME280_pressure;Samples;Min_cycle;Max_cycle;Signal;HPM_P1;HPM_P2
2021/08/25 00:04:10;;;;;;;5.22;2.45;;;13.80;99.90;;;;;;12500719;28;20595;-44
2021/08/25 00:10:12;;;;;;;6.60;3.10;;;13.70;99.90;;;;;;12506778;28;20042;-45
2021/08/25 00:16:14;;;;;;;4.43;2.58;;;13.70;99.90;;;;;;12505260;28;20244;-46
2021/08/25 00:22:16;;;;;;;5.53;2.85;;;13.70;99.90;;;;;;12506587;28;20052;-45
2021/08/25 00:28:18;;;;;;;6.00;2.92;;;13.60;99.90;;;;;;12504114;28;20141;-48
2021/08/25 00:34:20;;;;;;;5.55;2.58;;;13.70;99.90;;;;;;12504851;28;20053;-46
2021/08/25 00:40:22;;;;;;;4.95;2.72;;;13.60;99.90;;;;;;12506656;28;20397;-46
2021/08/25 00:46:29;;;;;;;5.07;2.35;;;13.60;99.90;;;;;;12508882;28;20053;-44
2021/08/25 00:52:31;;;;;;;5.93;2.70;;;13.50;99.90;;;;;;12502028;28;20099;-46
2021/08/25 00:58:41;;;;;;;5.72;2.58;;;13.40;99.90;;;;;;12506103;28;20537;-45
2021/08/25 01:04:53;;;;;;;4.50;2.15;;;13.40;99.90;;;;;;12503862;28;20071;-44
2021/08/25 01:11:11;;;;;;;8.48;2.95;;;13.30;99.90;;;;;;12505059;28;20056;-46
2021/08/25 01:17:18;;;;;;;6.38;2.60;;;13.30;99.90;;;;;;12501614;28;20558;-45
2021/08/25 01:23:22;;;;;;;9.90;2.38;;;13.30;99.90;;;;;;12503304;28;20041;-43
2021/08/25 01:29:30;;;;;;;5.45;3.08;;;13.30;99.90;;;;;;12503059;28;20112;-44
2021/08/25 01:35:33;;;;;;;6.75;2.53;;;13.20;99.90;;;;;;12502977;28;20995;-45
2021/08/25 01:41:35;;;;;;;4.57;2.50;;;13.20;99.90;;;;;;12505113;28;20128;-44
2021/08/25 01:47:37;;;;;;;6.00;2.85;;;13.10;99.90;;;;;;12505503;28;20082;-45
2021/08/25 01:53:39;;;;;;;8.05;2.55;;;12.80;99.90;;;;;;12504223;28;20588;-45
2021/08/25 01:59:41;;;;;;;4.90;2.60;;;12.80;99.90;;;;;;12503635;28;20140;-44
2021/08/25 02:05:43;;;;;;;5.75;2.38;;;12.80;99.90;;;;;;12505912;28;20077;-45
2021/08/25 02:11:44;;;;;;;6.15;2.72;;;12.70;99.90;;;;;;12501447;28;20947;-45
2021/08/25 02:17:46;;;;;;;5.85;2.80;;;12.70;99.90;;;;;;12499737;28;20049;-44
2021/08/25 02:23:49;;;;;;;9.27;2.65;;;12.70;99.90;;;;;;12500877;28;20425;-43
2021/08/25 02:29:58;;;;;;;5.40;2.67;;;12.70;99.90;;;;;;12502849;28;21432;-43
2021/08/25 02:36:00;;;;;;;6.28;2.85;;;12.70;99.90;;;;;;12501650;28;20061;-45
2021/08/25 02:42:02;;;;;;;5.43;2.72;;;12.70;99.90;;;;;;12479179;28;20087;-45
2021/08/25 02:48:04;;;;;;;8.98;2.70;;;12.70;99.90;;;;;;12499047;28;20052;-44
2021/08/25 02:54:06;;;;;;;4.97;2.53;;;12.70;99.90;;;;;;12486987;28;20049;-44
2021/08/25 03:00:09;;;;;;;4.65;2.55;;;12.60;99.90;;;;;;12499625;28;20075;-45
2021/08/25 03:06:10;;;;;;;7.72;2.47;;;12.50;99.90;;;;;;12500338;28;20072;-46
2021/08/25 03:12:12;;;;;;;4.00;2.35;;;12.50;99.90;;;;;;12499372;28;20153;-45
2021/08/25 03:18:14;;;;;;;7.70;3.15;;;12.50;99.90;;;;;;12487676;28;20482;-46
2021/08/25 03:24:17;;;;;;;6.13;2.90;;;12.50;99.90;;;;;;12497329;28;20098;-45
2021/08/25 03:30:18;;;;;;;4.95;2.67;;;12.50;99.90;;;;;;12495754;28;20106;-45
2021/08/25 03:36:20;;;;;;;4.85;2.70;;;12.50;99.90;;;;;;12496706;28;20083;-45
2021/08/25 03:42:22;;;;;;;5.72;2.45;;;12.50;99.90;;;;;;12499964;28;20432;-44
2021/08/25 03:48:24;;;;;;;5.30;2.70;;;12.40;99.90;;;;;;12496456;28;20045;-45
2021/08/25 03:54:27;;;;;;;6.40;3.00;;;12.40;99.90;;;;;;12497057;28;20087;-47
2021/08/25 04:00:30;;;;;;;6.50;3.10;;;12.30;99.90;;;;;;12493632;28;20095;-43
2021/08/25 04:06:33;;;;;;;6.15;2.78;;;12.30;99.90;;;;;;12497471;28;20060;-43
2021/08/25 04:12:34;;;;;;;8.35;2.80;;;12.30;99.90;;;;;;12497253;28;20053;-44
2021/08/25 04:18:36;;;;;;;5.35;2.67;;;12.20;99.90;;;;;;12502751;28;20140;-44
2021/08/25 04:24:39;;;;;;;5.22;2.70;;;12.10;99.90;;;;;;12503413;28;20045;-45
2021/08/25 04:30:41;;;;;;;6.22;2.88;;;12.20;99.90;;;;;;12505454;28;20492;-43
2021/08/25 04:36:46;;;;;;;7.80;2.60;;;12.10;99.90;;;;;;12508866;28;20462;-44
2021/08/25 04:42:47;;;;;;;4.78;2.60;;;12.10;99.90;;;;;;12505579;28;20421;-46
2021/08/25 04:48:50;;;;;;;5.95;2.70;;;12.00;99.90;;;;;;12507762;28;20060;-44
2021/08/25 04:54:52;;;;;;;6.07;2.78;;;11.50;99.90;;;;;;12507953;28;20050;-45
2021/08/25 05:00:54;;;;;;;7.03;3.03;;;11.60;99.90;;;;;;12508738;28;20136;-45
2021/08/25 05:06:56;;;;;;;6.78;2.60;;;11.80;99.90;;;;;;12510650;28;20053;-45
2021/08/25 05:12:58;;;;;;;5.75;3.05;;;11.80;99.90;;;;;;12515308;28;20072;-44
2021/08/25 05:19:02;;;;;;;6.57;3.00;;;11.90;99.90;;;;;;12490391;28;20057;-44
2021/08/25 05:25:05;;;;;;;8.98;4.88;;;11.80;99.90;;;;;;12510188;28;20101;-44
2021/08/25 05:31:07;;;;;;;5.95;2.70;;;11.90;99.90;;;;;;12509116;28;20106;-44
2021/08/25 05:37:09;;;;;;;4.82;2.88;;;12.10;99.90;;;;;;12508921;28;20053;-44
2021/08/25 05:43:12;;;;;;;8.48;3.40;;;12.10;99.90;;;;;;12510910;28;20049;-44
2021/08/25 05:49:14;;;;;;;6.30;3.15;;;12.10;99.90;;;;;;12507271;28;20053;-44
2021/08/25 05:55:16;;;;;;;5.72;3.10;;;12.00;99.90;;;;;;12503742;28;21003;-46
2021/08/25 06:01:18;;;;;;;7.97;3.47;;;12.10;99.90;;;;;;12504935;28;20041;-44
2021/08/25 06:07:20;;;;;;;5.68;2.80;;;12.10;99.90;;;;;;12508319;28;20053;-45
2021/08/25 06:13:22;;;;;;;5.90;3.30;;;12.20;99.90;;;;;;12506287;28;20053;-45
2021/08/25 06:19:25;;;;;;;6.90;3.58;;;12.20;99.90;;;;;;12504569;28;20090;-45
2021/08/25 06:25:27;;;;;;;6.25;3.50;;;12.40;99.90;;;;;;12503200;28;20489;-45
2021/08/25 06:31:29;;;;;;;8.45;3.97;;;12.50;99.90;;;;;;12504217;28;20085;-45
2021/08/25 06:37:34;;;;;;;;;;;12.60;99.90;;;;;;12505455;28;20553;-44
2021/08/25 06:43:37;;;;;;;6.80;3.83;;;12.70;99.90;;;;;;12500229;28;19932;-44
2021/08/25 06:49:39;;;;;;;7.97;4.18;;;12.80;99.90;;;;;;12483901;28;20996;-45
2021/08/25 06:55:41;;;;;;;9.13;4.57;;;12.80;99.90;;;;;;12505818;28;20443;-44
2021/08/25 07:01:43;;;;;;;8.60;4.90;;;13.00;99.90;;;;;;12500980;28;20041;-44
2021/08/25 07:07:47;;;;;;;8.50;4.38;;;13.20;99.90;;;;;;12503756;28;20616;-45
2021/08/25 07:13:49;;;;;;;10.32;4.55;;;13.40;99.90;;;;;;12496624;28;20057;-44
2021/08/25 07:19:51;;;;;;;8.25;5.00;;;13.50;99.90;;;;;;12504621;28;20049;-44
2021/08/25 07:25:52;;;;;;;8.05;4.45;;;13.50;99.90;;;;;;12500492;28;20081;-45
2021/08/25 07:31:55;;;;;;;10.13;4.50;;;13.70;99.90;;;;;;12483700;28;20067;-45
2021/08/25 07:37:57;;;;;;;7.97;4.72;;;14.00;99.90;;;;;;12499407;28;20175;-46
2021/08/25 07:44:01;;;;;;;7.65;4.25;;;14.30;99.90;;;;;;12503199;28;20065;-46
2021/08/25 07:50:03;;;;;;;11.77;4.57;;;14.40;99.90;;;;;;12499024;28;20045;-44
2021/08/25 07:56:06;;;;;;;9.30;4.88;;;14.60;99.90;;;;;;12500497;28;20057;-43
2021/08/25 08:02:08;;;;;;;11.65;4.53;;;14.80;99.90;;;;;;12504851;28;20049;-46
2021/08/25 08:08:10;;;;;;;9.65;4.85;;;14.90;99.90;;;;;;12505319;28;20067;-45
2021/08/25 08:14:13;;;;;;;7.28;3.80;;;15.20;99.90;;;;;;12499558;28;20053;-44
2021/08/25 08:20:16;;;;;;;7.10;3.65;;;15.50;99.90;;;;;;12501633;28;20102;-44
2021/08/25 08:26:19;;;;;;;7.88;3.60;;;15.70;99.90;;;;;;12508762;28;20037;-37
2021/08/25 08:32:21;;;;;;;7.80;4.22;;;15.70;99.90;;;;;;12511274;28;20151;-37
2021/08/25 08:38:23;;;;;;;8.75;4.43;;;15.80;99.90;;;;;;12510131;28;20076;-37
2021/08/25 08:44:26;;;;;;;7.68;3.88;;;15.70;99.90;;;;;;12512644;28;20056;-37
2021/08/25 08:50:28;;;;;;;8.10;4.20;;;15.60;99.90;;;;;;12509938;28;20060;-36
2021/08/25 08:56:31;;;;;;;5.55;3.28;;;15.80;99.90;;;;;;12513025;28;20421;-36
2021/08/25 09:02:41;;;;;;;6.38;3.80;;;16.10;99.90;;;;;;12520055;28;20103;-37
2021/08/25 09:08:57;;;;;;;6.88;3.10;;;16.50;99.90;;;;;;12519893;28;20144;-37
2021/08/25 09:15:18;;;;;;;10.77;3.78;;;16.80;99.90;;;;;;12518817;28;20484;-36
2021/08/25 09:21:33;;;;;;;6.45;3.33;;;17.10;99.90;;;;;;12509968;28;20094;-36
2021/08/25 09:27:35;;;;;;;5.68;3.13;;;17.40;99.90;;;;;;12515244;28;20050;-38
2021/08/25 09:33:41;;;;;;;7.70;3.10;;;17.70;99.90;;;;;;12505388;28;20067;-36
2021/08/25 09:39:46;;;;;;;8.93;4.10;;;17.90;99.90;;;;;;12510404;28;20049;-36
2021/08/25 09:46:08;;;;;;;6.03;3.10;;;18.30;99.90;;;;;;12506460;28;20696;-38
2021/08/25 09:52:33;;;;;;;6.72;3.30;;;18.50;99.90;;;;;;12493082;28;20120;-36
2021/08/25 09:58:35;;;;;;;6.85;3.45;;;18.80;99.90;;;;;;12503955;28;20057;-37
2021/08/25 10:04:37;;;;;;;8.38;3.60;;;19.00;99.90;;;;;;12508450;28;20370;-36
2021/08/25 10:10:39;;;;;;;6.72;3.65;;;19.30;99.90;;;;;;12509602;28;20049;-38
2021/08/25 10:16:48;;;;;;;7.72;3.85;;;19.50;99.90;;;;;;12512991;28;20873;-36
2021/08/25 10:22:51;;;;;;;7.22;2.97;;;19.70;99.90;;;;;;12509821;28;20048;-38
2021/08/25 10:28:59;;;;;;;6.82;3.20;;;20.00;99.90;;;;;;12510311;28;20151;-40
2021/08/25 10:35:13;;;;;;;11.65;3.35;;;20.20;99.90;;;;;;12506415;28;20056;-38
2021/08/25 10:41:20;;;;;;;6.03;3.08;;;20.30;99.90;;;;;;12509936;28;20049;-38
2021/08/25 10:47:59;;;;;;;6.32;3.15;;;20.40;99.90;;;;;;12475975;28;20056;-40
2021/08/25 10:54:04;;;;;;;6.60;3.40;;;20.20;99.90;;;;;;12508701;28;20432;-38
2021/08/25 11:00:08;;;;;;;7.47;4.07;;;20.20;99.90;;;;;;12501734;28;20061;-38
2021/08/25 11:06:25;;;;;;;;;;;20.00;99.90;;;;;;12500016;28;20052;-36
2021/08/25 11:12:27;;;;;;;9.35;3.83;;;19.70;99.90;;;;;;12495764;28;19924;-38
2021/08/25 11:18:36;;;;;;;7.50;3.92;;;19.70;99.90;;;;;;12499929;28;20082;-36
2021/08/25 11:24:43;;;;;;;6.15;3.55;;;19.90;99.90;;;;;;12507935;28;20107;-37
2021/08/25 11:30:45;;;;;;;8.18;3.88;;;20.60;99.90;;;;;;12503075;28;20077;-40
2021/08/25 11:37:02;;;;;;;6.60;3.05;;;20.90;99.90;;;;;;12499367;28;20060;-37
2021/08/25 11:43:10;;;;;;;8.05;3.97;;;21.30;99.90;;;;;;12485017;28;20136;-36
2021/08/25 11:49:12;;;;;;;6.93;3.75;;;21.80;99.90;;;;;;12501943;28;20056;-38
2021/08/25 11:55:15;;;;;;;6.57;3.40;;;22.00;99.90;;;;;;12502273;28;20049;-39
2021/08/25 12:01:24;;;;;;;8.17;3.63;;;22.10;99.90;;;;;;12498660;28;20063;-38
2021/08/25 12:07:27;;;;;;;6.65;3.50;;;21.60;99.90;;;;;;12508504;28;20056;-39
2021/08/25 12:13:36;;;;;;;5.97;3.40;;;21.50;99.90;;;;;;12508976;28;20094;-38
2021/08/25 12:19:38;;;;;;;7.03;3.67;;;21.80;99.90;;;;;;12513053;28;20135;-38
2021/08/25 12:25:48;;;;;;;6.90;3.72;;;21.90;99.90;;;;;;12512413;28;20045;-41
2021/08/25 12:31:56;;;;;;;6.63;3.25;;;21.80;99.90;;;;;;12511483;28;20147;-38
2021/08/25 12:37:58;;;;;;;5.55;3.10;;;22.10;99.90;;;;;;12510366;28;20065;-39
2021/08/25 12:44:17;;;;;;;5.83;3.10;;;22.00;99.90;;;;;;12512282;28;20058;-40
2021/08/25 12:50:22;;;;;;;5.03;3.00;;;21.60;99.90;;;;;;12514394;28;20041;-38
2021/08/25 12:56:24;;;;;;;8.27;3.45;;;22.10;99.90;;;;;;12511591;28;20082;-40
2021/08/25 13:02:26;;;;;;;8.18;3.70;;;22.30;99.90;;;;;;12513976;28;20260;-41
2021/08/25 13:08:28;;;;;;;7.28;3.45;;;22.70;99.90;;;;;;12514003;28;20049;-39
2021/08/25 13:14:30;;;;;;;4.93;3.10;;;22.10;99.90;;;;;;12504561;28;20069;-39
2021/08/25 13:20:34;;;;;;;8.23;2.90;;;22.20;99.90;;;;;;12513229;28;20092;-39
2021/08/25 13:26:54;;;;;;;5.03;2.80;;;21.80;99.90;;;;;;12505717;28;20685;-39
2021/08/25 13:32:56;;;;;;;6.28;2.63;;;21.50;99.90;;;;;;12496595;28;20151;-39
2021/08/25 13:38:58;;;;;;;4.20;2.50;;;21.00;99.90;;;;;;12514348;28;20049;-45
2021/08/25 13:45:01;;;;;;;6.45;2.80;;;21.00;99.90;;;;;;12493204;28;20135;-40
2021/08/25 13:51:03;;;;;;;6.57;3.47;;;21.20;99.90;;;;;;12504567;28;20486;-39
2021/08/25 13:57:05;;;;;;;6.72;3.45;;;21.20;99.90;;;;;;12506020;28;20094;-39
2021/08/25 14:03:07;;;;;;;72.05;53.75;;;21.20;99.90;;;;;;12509671;28;20175;-39
2021/08/25 14:09:10;;;;;;;682.30;501.15;;;21.00;99.90;;;;;;12511520;28;20045;-39
2021/08/25 14:15:13;;;;;;;27.92;16.30;;;21.00;99.90;;;;;;12518305;28;20500;-38
2021/08/25 14:21:17;;;;;;;11.50;6.40;;;21.30;99.90;;;;;;12515239;28;20069;-38
2021/08/25 14:27:19;;;;;;;14.15;6.80;;;21.80;99.90;;;;;;12520723;28;20132;-39
2021/08/25 14:33:23;;;;;;;16.92;11.75;;;22.00;99.90;;;;;;12515761;28;20052;-39
2021/08/25 14:39:25;;;;;;;146.57;111.07;;;22.00;99.90;;;;;;12510643;28;20044;-39
2021/08/25 14:45:27;;;;;;;44.90;36.78;;;21.50;99.90;;;;;;12496739;28;20049;-39
2021/08/25 14:51:29;;;;;;;38.30;29.70;;;21.20;99.90;;;;;;12509397;28;20045;-39
2021/08/25 14:57:31;;;;;;;53.20;36.03;;;20.90;99.90;;;;;;12516514;28;20045;-38
2021/08/25 15:03:33;;;;;;;150.90;119.97;;;20.90;99.90;;;;;;12510119;28;20056;-38
2021/08/25 15:09:39;;;;;;;88.07;69.68;;;21.40;99.90;;;;;;12500077;28;20052;-39
2021/08/25 15:15:42;;;;;;;34.70;26.80;;;21.20;99.90;;;;;;12508168;28;20060;-39
2021/08/25 15:21:44;;;;;;;43.03;38.37;;;21.10;99.90;;;;;;12488791;28;20481;-40
2021/08/25 15:27:46;;;;;;;34.30;30.65;;;21.40;99.90;;;;;;12506429;28;20052;-39
2021/08/25 15:33:50;;;;;;;141.48;121.90;;;21.70;99.90;;;;;;12503425;28;20049;-40
2021/08/25 15:39:52;;;;;;;291.75;208.88;;;21.60;99.90;;;;;;12505895;28;20053;-40
2021/08/25 15:45:55;;;;;;;7.35;3.95;;;21.30;99.90;;;;;;12499453;28;20053;-38
2021/08/25 15:51:57;;;;;;;4.95;2.13;;;21.30;99.90;;;;;;12497792;28;20051;-39
2021/08/25 15:58:02;;;;;;;5.30;2.03;;;21.60;99.90;;;;;;12501597;28;20967;-38
2021/08/25 16:04:04;;;;;;;6.05;2.17;;;21.90;99.90;;;;;;12497712;28;20132;-39
2021/08/25 16:10:07;;;;;;;406.73;251.37;;;21.30;99.90;;;;;;12504767;28;20049;-39
2021/08/25 16:16:09;;;;;;;17.75;15.98;;;20.80;99.90;;;;;;12498734;28;20053;-40
2021/08/25 16:22:11;;;;;;;29.83;18.70;;;20.30;99.90;;;;;;12511183;28;20067;-41
2021/08/25 16:28:13;;;;;;;6.57;3.50;;;20.30;99.90;;;;;;12504722;28;20056;-40
2021/08/25 16:34:15;;;;;;;8.23;3.92;;;20.00;99.90;;;;;;12506732;28;20049;-38
2021/08/25 16:40:18;;;;;;;7.20;4.88;;;20.00;99.90;;;;;;12503766;28;20048;-39
2021/08/25 16:46:20;;;;;;;33.30;29.85;;;19.90;99.90;;;;;;12509322;28;20140;-38
2021/08/25 16:52:22;;;;;;;7.93;5.28;;;19.90;99.90;;;;;;12513481;28;20555;-39
2021/08/25 16:58:24;;;;;;;4.28;1.60;;;19.80;99.90;;;;;;12518840;28;20092;-39
2021/08/25 17:04:26;;;;;;;3.90;2.90;;;19.70;99.90;;;;;;12510965;28;20144;-39
2021/08/25 17:10:28;;;;;;;2.63;1.30;;;19.70;99.90;;;;;;12512035;28;20476;-38
2021/08/25 17:16:31;;;;;;;2.97;1.65;;;19.50;99.90;;;;;;12515260;28;20086;-38
2021/08/25 17:22:33;;;;;;;5.23;1.37;;;19.40;99.90;;;;;;12515976;28;20065;-38
2021/08/25 17:28:37;;;;;;;2.40;1.20;;;19.30;99.90;;;;;;12517140;28;20044;-39
2021/08/25 17:34:39;;;;;;;4.70;1.67;;;19.30;99.90;;;;;;12516252;28;20056;-38
2021/08/25 17:40:45;;;;;;;7.82;5.40;;;19.20;99.90;;;;;;12524953;28;20052;-38
2021/08/25 17:46:47;;;;;;;8.43;2.75;;;19.10;99.90;;;;;;12513847;28;20083;-38
2021/08/25 17:52:51;;;;;;;8.13;3.75;;;19.00;99.90;;;;;;12514792;28;20044;-38
2021/08/25 17:58:53;;;;;;;5.18;2.33;;;18.80;99.90;;;;;;12514458;28;20057;-39
2021/08/25 18:04:56;;;;;;;8.75;3.45;;;18.50;99.90;;;;;;12517305;28;20049;-37
2021/08/25 18:10:58;;;;;;;80.68;35.17;;;18.40;99.90;;;;;;12517626;28;20056;-37
2021/08/25 18:17:01;;;;;;;56.92;23.90;;;18.30;99.90;;;;;;12516425;28;20061;-38
2021/08/25 18:23:03;;;;;;;5.13;1.95;;;18.20;99.90;;;;;;12509093;28;20052;-37
2021/08/25 18:29:07;;;;;;;3.78;1.20;;;18.00;99.90;;;;;;12513744;28;20036;-38
2021/08/25 18:35:09;;;;;;;2.25;0.90;;;17.90;99.90;;;;;;12509618;28;20049;-38
2021/08/25 18:41:11;;;;;;;5.63;1.40;;;17.80;99.90;;;;;;12513152;28;20155;-38
2021/08/25 18:47:13;;;;;;;2.88;1.33;;;17.90;99.90;;;;;;12510617;28;20078;-38
2021/08/25 18:53:15;;;;;;;3.22;1.30;;;17.70;99.90;;;;;;12513412;28;20075;-38
2021/08/25 18:59:18;;;;;;;2.72;1.50;;;17.60;99.90;;;;;;12512670;28;20103;-37
2021/08/25 19:05:20;;;;;;;5.47;1.83;;;17.50;99.90;;;;;;12514916;28;20049;-37
2021/08/25 19:11:22;;;;;;;2.85;1.77;;;17.40;99.90;;;;;;12506500;28;20074;-37
2021/08/25 19:17:24;;;;;;;2.97;2.05;;;17.30;99.90;;;;;;12507547;28;20559;-37
2021/08/25 19:23:26;;;;;;;4.95;1.90;;;17.20;99.90;;;;;;12508720;28;20558;-37
2021/08/25 19:29:28;;;;;;;2.58;1.40;;;17.30;99.90;;;;;;12512444;28;20405;-37
2021/08/25 19:35:31;;;;;;;3.78;1.73;;;17.30;99.90;;;;;;12507211;28;20049;-37
2021/08/25 19:41:33;;;;;;;5.22;1.88;;;17.20;99.90;;;;;;12511391;28;20052;-37
2021/08/25 19:47:37;;;;;;;3.40;1.65;;;17.00;99.90;;;;;;12511766;28;20127;-38
2021/08/25 19:53:39;;;;;;;4.63;1.90;;;17.00;99.90;;;;;;12508503;28;20049;-37
2021/08/25 19:59:41;;;;;;;3.88;2.05;;;17.10;99.90;;;;;;12507861;28;20056;-37
2021/08/25 20:05:43;;;;;;;2.92;2.10;;;16.90;99.90;;;;;;12505263;28;20140;-37
2021/08/25 20:11:45;;;;;;;2.80;1.90;;;16.80;99.90;;;;;;12506981;28;20045;-37
2021/08/25 20:17:49;;;;;;;3.95;2.33;;;16.70;99.90;;;;;;12470935;28;20061;-37
2021/08/25 20:23:51;;;;;;;4.38;2.15;;;16.60;99.90;;;;;;12510353;28;20056;-37
2021/08/25 20:29:54;;;;;;;4.15;2.25;;;16.50;99.90;;;;;;12510772;28;20759;-37
2021/08/25 20:35:56;;;;;;;5.03;2.10;;;16.30;99.90;;;;;;12510330;28;20051;-37
2021/08/25 20:41:58;;;;;;;3.00;2.20;;;16.30;99.90;;;;;;12510318;28;20084;-37
2021/08/25 20:48:01;;;;;;;4.82;1.98;;;16.10;99.90;;;;;;12511247;28;20463;-37
2021/08/25 20:54:03;;;;;;;4.03;2.50;;;16.10;99.90;;;;;;12506896;28;20080;-37
2021/08/25 21:00:07;;;;;;;4.80;2.47;;;16.10;99.90;;;;;;12510206;28;20048;-37
2021/08/25 21:06:09;;;;;;;4.43;2.13;;;16.00;99.90;;;;;;12508272;28;20095;-38
2021/08/25 21:12:11;;;;;;;4.05;1.80;;;16.10;99.90;;;;;;12505294;28;20045;-37
2021/08/25 21:18:15;;;;;;;4.18;2.45;;;16.00;99.90;;;;;;12508426;28;20140;-37
2021/08/25 21:24:19;;;;;;;3.60;2.20;;;15.90;99.90;;;;;;12511093;28;20057;-37
2021/08/25 21:30:21;;;;;;;2.95;2.25;;;15.90;99.90;;;;;;12504425;28;20072;-37
2021/08/25 21:36:23;;;;;;;3.88;3.30;;;15.80;99.90;;;;;;12506223;28;20091;-37
2021/08/25 21:42:25;;;;;;;4.90;4.00;;;15.80;99.90;;;;;;12505332;28;20086;-37
2021/08/25 21:48:27;;;;;;;5.30;4.45;;;15.80;99.90;;;;;;12493443;28;20060;-38
2021/08/25 21:54:30;;;;;;;5.93;4.65;;;15.80;99.90;;;;;;12502989;28;20049;-37
2021/08/25 22:00:33;;;;;;;6.38;4.35;;;15.80;99.90;;;;;;12504060;28;20588;-37
2021/08/25 22:06:36;;;;;;;5.63;4.40;;;15.70;99.90;;;;;;12507316;28;20083;-39
2021/08/25 22:12:38;;;;;;;8.45;4.22;;;15.80;99.90;;;;;;12507916;28;20049;-37
2021/08/25 22:18:40;;;;;;;5.95;4.13;;;15.70;99.90;;;;;;12501803;28;20053;-37
2021/08/25 22:24:42;;;;;;;5.55;4.32;;;15.70;99.90;;;;;;12502893;28;20055;-37
2021/08/25 22:30:47;;;;;;;4.00;3.33;;;15.70;99.90;;;;;;12500141;28;20130;-38
2021/08/25 22:36:49;;;;;;;4.35;3.10;;;15.60;99.90;;;;;;12505724;28;20053;-37
2021/08/25 22:42:57;;;;;;;3.60;2.65;;;15.70;99.90;;;;;;12503531;28;20049;-37
2021/08/25 22:48:59;;;;;;;3.75;2.28;;;15.60;99.90;;;;;;12504830;28;20313;-38
2021/08/25 22:55:03;;;;;;;2.60;2.00;;;15.60;99.90;;;;;;12500830;28;20083;-37
2021/08/25 23:01:05;;;;;;;2.57;1.63;;;15.60;99.90;;;;;;12505096;28;20164;-37
2021/08/25 23:07:09;;;;;;;2.03;1.30;;;15.70;99.90;;;;;;12501189;28;20049;-39
2021/08/25 23:13:11;;;;;;;3.45;1.50;;;15.60;99.90;;;;;;12502425;28;20088;-37
2021/08/25 23:19:13;;;;;;;2.20;1.30;;;15.60;99.90;;;;;;12493161;28;20552;-37
2021/08/25 23:25:18;;;;;;;4.75;1.65;;;15.70;99.90;;;;;;12496965;28;20490;-37
2021/08/25 23:31:20;;;;;;;3.05;1.63;;;15.60;99.90;;;;;;12501647;28;20076;-37
2021/08/25 23:37:22;;;;;;;9.48;2.17;;;15.70;99.90;;;;;;12503947;28;20049;-37
2021/08/25 23:43:24;;;;;;;5.32;2.42;;;15.60;99.90;;;;;;12504118;28;20053;-37
2021/08/25 23:49:26;;;;;;;4.53;1.90;;;15.60;99.90;;;;;;12499299;28;20052;-37
2021/08/25 23:55:32;;;;;;;6.72;2.05;;;15.60;99.90;;;;;;12505170;28;20057;-37
